createdAt,value
2018-03-20T00:02:02.568Z,97768.09
2018-03-20T00:04:30.840Z,97771.93
2018-03-20T00:06:59.119Z,97769.81
2018-03-20T00:09:27.393Z,97764.83
2018-03-20T00:11:55.835Z,97768.63
2018-03-20T00:14:24.096Z,97763.17
2018-03-20T00:16:53.116Z,97766.03
2018-03-20T00:19:21.400Z,97760.63
2018-03-20T00:21:49.661Z,97758.34
2018-03-20T00:24:17.916Z,97757.64
2018-03-20T00:26:46.967Z,97758.95
2018-03-20T00:29:15.217Z,97754.94
2018-03-20T00:31:43.479Z,97759.75
2018-03-20T00:34:11.763Z,97757.73
2018-03-20T00:36:40.039Z,97762.13
2018-03-20T00:39:08.364Z,97765.73
2018-03-20T00:41:36.639Z,97760.45
2018-03-20T00:44:04.893Z,97754.84
2018-03-20T00:46:33.218Z,97760.91
2018-03-20T00:49:02.248Z,97770.45
2018-03-20T00:51:30.504Z,97764.88
2018-03-20T00:53:58.810Z,97769.42
2018-03-20T00:56:27.072Z,97769.66
2018-03-20T00:58:55.343Z,97769.30
2018-03-20T01:01:23.624Z,97767.67
2018-03-20T01:03:51.885Z,97775.09
2018-03-20T01:06:20.152Z,97772.61
2018-03-20T01:08:49.191Z,97771.27
2018-03-20T01:11:17.495Z,97767.87
2018-03-20T01:13:45.768Z,97770.45
2018-03-20T01:16:14.032Z,97774.70
2018-03-20T01:18:42.304Z,97778.23
2018-03-20T01:21:10.587Z,97771.70
2018-03-20T01:23:38.851Z,97768.42
2018-03-20T01:26:07.119Z,97760.32
2018-03-20T01:28:35.399Z,97765.75
2018-03-20T01:31:03.665Z,97764.62
2018-03-20T01:33:31.936Z,97765.78
2018-03-20T01:36:00.249Z,97759.40
2018-03-20T01:38:28.507Z,97756.22
2018-03-20T01:40:56.765Z,97763.94
2018-03-20T01:43:25.072Z,97759.14
2018-03-20T01:45:53.332Z,97757.91
2018-03-20T01:48:21.588Z,97750.72
2018-03-20T01:50:49.867Z,97752.17
2018-03-20T01:53:19.851Z,97744.32
2018-03-20T01:55:48.898Z,97752.37
2018-03-20T01:58:17.173Z,97757.61
2018-03-20T02:00:45.440Z,97746.92
2018-03-20T02:03:13.725Z,97747.64
2018-03-20T02:05:41.984Z,97748.38
2018-03-20T02:08:10.248Z,97746.17
2018-03-20T02:10:38.520Z,97746.14
2018-03-20T02:13:06.776Z,97744.70
2018-03-20T02:15:35.823Z,97748.84
2018-03-20T02:18:04.100Z,97747.09
2018-03-20T02:20:32.362Z,97745.23
2018-03-20T02:23:00.648Z,97748.09
2018-03-20T02:25:28.943Z,97746.86
2018-03-20T02:27:57.216Z,97739.27
2018-03-20T02:30:25.965Z,97753.78
2018-03-20T02:32:54.234Z,97745.94
2018-03-20T02:35:22.493Z,97751.22
2018-03-20T02:37:50.799Z,97747.21
2018-03-20T02:40:19.065Z,97747.18
2018-03-20T02:42:47.328Z,97746.98
2018-03-20T02:45:15.623Z,97741.26
2018-03-20T02:47:43.890Z,97751.94
2018-03-20T02:50:12.158Z,97751.58
2018-03-20T02:52:41.220Z,97740.66
2018-03-20T02:55:10.270Z,97744.45
2018-03-20T02:57:38.567Z,97747.48
2018-03-20T03:00:06.857Z,97755.95
2018-03-20T03:02:35.121Z,97750.34
2018-03-20T03:05:03.447Z,97740.78
2018-03-20T03:07:32.546Z,97737.92
2018-03-20T03:10:00.756Z,97747.27
2018-03-20T03:12:29.028Z,97753.78
2018-03-20T03:14:57.331Z,97754.98
2018-03-20T03:17:25.600Z,97748.17
2018-03-20T03:19:53.884Z,97753.87
2018-03-20T03:22:22.187Z,97744.80
2018-03-20T03:24:51.224Z,97756.62
2018-03-20T03:27:19.498Z,97741.34
2018-03-20T03:29:47.774Z,97751.59
2018-03-20T03:32:16.035Z,97744.44
2018-03-20T03:34:44.308Z,97742.33
2018-03-20T03:37:12.567Z,97747.30
2018-03-20T03:39:41.643Z,97739.33
2018-03-20T03:42:09.899Z,97733.77
2018-03-20T03:44:38.163Z,97723.19
2018-03-20T03:47:06.499Z,97735.14
2018-03-20T03:49:35.524Z,97726.85
2018-03-20T03:52:03.784Z,97722.23
2018-03-20T03:54:32.074Z,97705.16
2018-03-20T03:57:00.332Z,97712.39
2018-03-20T03:59:28.602Z,97709.27
2018-03-20T04:01:57.677Z,97711.94
2018-03-20T04:04:26.705Z,97708.71
2018-03-20T04:06:54.968Z,97701.48
2018-03-20T04:09:23.248Z,97704.53
2018-03-20T04:11:51.525Z,97704.47
2018-03-20T04:14:19.792Z,97699.22
2018-03-20T04:16:48.839Z,97685.03
2018-03-20T04:19:17.109Z,97683.74
2018-03-20T04:21:45.387Z,97681.70
2018-03-20T04:24:13.644Z,97694.09
2018-03-20T04:26:41.919Z,97688.64
2018-03-20T04:29:10.180Z,97692.27
2018-03-20T04:31:38.449Z,97692.16
2018-03-20T04:34:06.727Z,97682.92
2018-03-20T04:36:35.024Z,97688.52
2018-03-20T04:39:03.292Z,97690.13
2018-03-20T04:41:31.560Z,97682.69
2018-03-20T04:44:00.152Z,97689.30
2018-03-20T04:46:28.445Z,97694.23
2018-03-20T04:48:56.710Z,97698.73
2018-03-20T04:51:24.976Z,97697.53
2018-03-20T04:53:53.257Z,97694.92
2018-03-20T04:56:21.515Z,97685.39
2018-03-20T04:58:49.810Z,97681.38
2018-03-20T05:01:18.071Z,97678.93
2018-03-20T05:03:46.337Z,97683.48
2018-03-20T05:06:15.396Z,97675.81
2018-03-20T05:08:43.688Z,97674.05
2018-03-20T05:11:12.006Z,97680.34
2018-03-20T05:13:40.265Z,97684.17
2018-03-20T05:16:09.291Z,97690.83
2018-03-20T05:18:54.350Z,97686.79
2018-03-20T05:21:36.328Z,97680.19
2018-03-20T05:24:04.588Z,97690.45
2018-03-20T05:26:33.640Z,97690.62
2018-03-20T05:29:01.912Z,97685.80
2018-03-20T05:31:30.182Z,97682.98
2018-03-20T05:33:58.460Z,97683.91
2018-03-20T05:36:26.739Z,97677.47
2018-03-20T05:38:55.011Z,97676.21
2018-03-20T05:41:23.275Z,97670.13
2018-03-20T05:43:51.568Z,97671.59
2018-03-20T05:46:25.284Z,97668.52
2018-03-20T05:49:00.960Z,97675.53
2018-03-20T05:54:34.962Z,97673.67
2018-03-20T05:57:03.253Z,97667.92
2018-03-20T05:59:31.532Z,97670.46
2018-03-20T06:02:02.933Z,97658.83
2018-03-20T06:04:31.196Z,97664.22
2018-03-20T06:06:59.487Z,97675.03
2018-03-20T06:09:27.764Z,97673.22
2018-03-20T06:11:56.033Z,97681.06
2018-03-20T06:14:24.296Z,97683.09
2018-03-20T06:16:52.597Z,97691.74
2018-03-20T06:19:20.862Z,97688.65
2018-03-20T06:21:49.182Z,97687.05
2018-03-20T06:24:17.439Z,97682.64
2018-03-20T06:26:45.705Z,97687.02
2018-03-20T06:29:13.967Z,97685.88
2018-03-20T06:31:42.234Z,97683.02
2018-03-20T06:34:10.556Z,97689.98
2018-03-20T06:36:38.844Z,97695.70
2018-03-20T06:39:07.245Z,97699.36
2018-03-20T06:41:36.280Z,97705.48
2018-03-20T06:44:04.620Z,97713.38
2018-03-20T06:46:33.648Z,97717.49
2018-03-20T06:49:01.912Z,97715.16
2018-03-20T06:51:30.195Z,97715.89
2018-03-20T06:53:58.473Z,97719.53
2018-03-20T06:56:26.736Z,97721.50
2018-03-20T06:58:55.024Z,97716.47
2018-03-20T07:01:23.293Z,97718.73
2018-03-20T07:03:51.563Z,97720.72
2018-03-20T07:06:19.864Z,97715.80
2018-03-20T07:08:48.124Z,97717.19
2018-03-20T07:11:16.396Z,97716.48
2018-03-20T07:13:44.649Z,97720.81
2018-03-20T07:16:13.671Z,97720.95
2018-03-20T07:18:41.949Z,97731.42
2018-03-20T07:21:10.212Z,97725.89
2018-03-20T07:23:38.477Z,97719.81
2018-03-20T07:26:07.509Z,97723.18
2018-03-20T07:28:35.755Z,97720.73
2018-03-20T07:31:04.012Z,97721.91
2018-03-20T07:33:33.053Z,97730.51
2018-03-20T07:36:01.301Z,97729.69
2018-03-20T07:38:29.569Z,97722.55
2018-03-20T07:40:58.579Z,97730.13
2018-03-20T07:43:26.836Z,97729.23
2018-03-20T07:45:55.878Z,97734.39
2018-03-20T07:48:24.915Z,97730.34
2018-03-20T07:50:53.180Z,97740.00
2018-03-20T07:53:21.442Z,97743.58
2018-03-20T07:55:49.704Z,97746.19
2018-03-20T07:58:17.984Z,97748.09
2018-03-20T08:00:46.236Z,97747.95
2018-03-20T08:03:14.542Z,97748.92
2018-03-20T08:05:42.835Z,97752.03
2018-03-20T08:08:11.079Z,97752.56
2018-03-20T08:10:39.337Z,97751.83
2018-03-20T08:13:07.633Z,97744.00
2018-03-20T08:15:35.883Z,97723.39
2018-03-20T08:18:04.153Z,97754.30
2018-03-20T08:20:32.395Z,97753.64
2018-03-20T08:23:00.694Z,97750.67
2018-03-20T08:25:29.701Z,97754.10
2018-03-20T08:27:58.021Z,97754.01
2018-03-20T08:30:26.251Z,97746.92
2018-03-20T08:32:54.516Z,97756.12
2018-03-20T08:35:22.781Z,97762.55
2018-03-20T08:37:51.832Z,97765.69
2018-03-20T08:40:20.084Z,97764.53
2018-03-20T08:42:48.354Z,97769.71
2018-03-20T08:45:16.650Z,97774.30
2018-03-20T08:47:44.901Z,97783.64
2018-03-20T08:50:13.182Z,97775.41
2018-03-20T08:52:41.445Z,97783.46
2018-03-20T08:55:09.708Z,97789.96
2018-03-20T08:57:38.736Z,97798.03
2018-03-20T09:00:07.004Z,97798.40
2018-03-20T09:02:35.265Z,97809.08
2018-03-20T09:05:03.528Z,97806.53
2018-03-20T09:07:32.595Z,97804.20
2018-03-20T09:10:00.851Z,97802.42
2018-03-20T09:12:29.211Z,97806.20
2018-03-20T09:14:57.380Z,97813.06
2018-03-20T09:17:25.635Z,97816.36
2018-03-20T09:19:53.891Z,97811.73
2018-03-20T09:22:22.962Z,97814.27
2018-03-20T09:24:51.215Z,97815.40
2018-03-20T09:27:19.481Z,97819.98
2018-03-20T09:29:47.736Z,97825.55
2018-03-20T09:32:15.988Z,97826.34
2018-03-20T09:34:45.030Z,97831.63
2018-03-20T09:37:13.284Z,97831.56
2018-03-20T09:39:41.545Z,97836.49
2018-03-20T09:42:10.583Z,97842.56
2018-03-20T09:44:38.843Z,97836.49
2018-03-20T09:47:07.095Z,97852.94
2018-03-20T09:49:35.377Z,97855.30
2018-03-20T09:52:03.636Z,97860.17
2018-03-20T09:54:32.650Z,97867.63
2018-03-20T09:57:00.959Z,97880.91
2018-03-20T09:59:29.208Z,97869.39
2018-03-20T10:01:57.468Z,97873.65
2018-03-20T10:04:26.505Z,97881.63
2018-03-20T10:06:54.765Z,97891.74
2018-03-20T10:09:23.024Z,97882.59
2018-03-20T10:11:51.300Z,97897.19
2018-03-20T10:14:19.551Z,97902.65
2018-03-20T10:16:48.639Z,97896.39
2018-03-20T10:19:16.901Z,97907.82
2018-03-20T10:21:45.156Z,97901.73
2018-03-20T10:24:13.408Z,97904.20
2018-03-20T10:26:41.671Z,97903.05
2018-03-20T10:29:09.949Z,97907.36
2018-03-20T10:31:38.219Z,97912.02
2018-03-20T10:34:06.491Z,97915.55
2018-03-20T10:36:35.509Z,97922.27
2018-03-20T10:39:03.763Z,97913.98
2018-03-20T10:41:32.110Z,97926.55
2018-03-20T10:44:00.344Z,97920.85
2018-03-20T10:46:28.594Z,97923.67
2018-03-20T10:48:56.933Z,97920.32
2018-03-20T10:51:25.181Z,97924.38
2018-03-20T10:53:53.428Z,97925.14
2018-03-20T10:56:21.765Z,97918.05
2018-03-20T10:58:50.014Z,97929.73
2018-03-20T11:01:23.756Z,97931.69
2018-03-20T11:03:52.768Z,97956.00
2018-03-20T11:06:21.032Z,97947.88
2018-03-20T11:08:50.094Z,97954.06
2018-03-20T11:11:18.340Z,97959.27
2018-03-20T11:13:46.588Z,97956.77
2018-03-20T11:16:15.615Z,97944.79
2018-03-20T11:18:43.866Z,97959.42
2018-03-20T11:21:12.119Z,97963.34
2018-03-20T11:23:41.156Z,97969.81
2018-03-20T11:26:09.407Z,97962.14
2018-03-20T11:28:37.664Z,97968.58
2018-03-20T11:31:06.703Z,97966.10
2018-03-20T11:33:34.955Z,97963.43
2018-03-20T11:36:03.204Z,97966.99
2018-03-20T11:38:31.472Z,97965.75
2018-03-20T11:40:59.732Z,97970.95
2018-03-20T11:43:27.986Z,97992.66
2018-03-20T11:45:56.256Z,97994.75
2018-03-20T11:48:24.511Z,97990.27
2018-03-20T11:50:52.759Z,97996.97
2018-03-20T11:53:21.797Z,98013.23
2018-03-20T11:55:50.142Z,98014.48
2018-03-20T11:58:18.331Z,98026.37
2018-03-20T12:00:46.592Z,98022.64
2018-03-20T12:03:15.631Z,98024.28
2018-03-20T12:05:43.916Z,98018.65
2018-03-20T12:08:29.936Z,98022.16
2018-03-20T12:10:58.184Z,98036.20
2018-03-20T12:13:26.456Z,98034.49
2018-03-20T12:15:54.728Z,98036.98
2018-03-20T12:18:22.976Z,98027.90
2018-03-20T12:20:51.236Z,98042.05
2018-03-20T12:23:20.268Z,98037.59
2018-03-20T12:25:48.540Z,98032.08
2018-03-20T12:28:16.791Z,98032.55
2018-03-20T12:30:45.058Z,98034.19
2018-03-20T12:33:14.072Z,98038.56
2018-03-20T12:35:42.332Z,98038.78
2018-03-20T12:38:11.357Z,98044.09
2018-03-20T12:40:39.620Z,98049.72
2018-03-20T12:43:07.869Z,98046.00
2018-03-20T12:45:37.012Z,98046.27
2018-03-20T12:48:05.261Z,98051.41
2018-03-20T12:50:33.507Z,98064.91
2018-03-20T12:53:02.566Z,98058.08
2018-03-20T12:55:30.814Z,98073.16
2018-03-20T12:57:59.059Z,98078.72
2018-03-20T13:00:28.096Z,98072.19
2018-03-20T13:02:56.352Z,98064.41
2018-03-20T13:05:24.616Z,98079.03
2018-03-20T13:07:53.667Z,98062.91
2018-03-20T13:10:21.908Z,98079.52
2018-03-20T13:12:50.163Z,98072.60
2018-03-20T13:15:18.427Z,98089.73
2018-03-20T13:17:47.451Z,98086.69
2018-03-20T13:20:15.723Z,98078.77
2018-03-20T13:22:43.986Z,98086.59
2018-03-20T13:25:12.253Z,98088.78
2018-03-20T13:27:41.274Z,98085.42
2018-03-20T13:30:09.516Z,98089.20
2018-03-20T13:32:38.546Z,98097.95
2018-03-20T13:35:06.791Z,98098.16
2018-03-20T13:37:35.812Z,98119.06
2018-03-20T13:40:04.084Z,98111.84
2018-03-20T13:42:32.344Z,98124.38
2018-03-20T13:45:00.588Z,98124.17
2018-03-20T13:47:29.616Z,98128.00
2018-03-20T13:49:57.882Z,98131.70
2018-03-20T13:52:26.911Z,98126.56
2018-03-20T13:54:55.160Z,98123.36
2018-03-20T13:57:23.420Z,98126.41
2018-03-20T13:59:52.460Z,98134.30
2018-03-20T14:02:20.727Z,98143.81
2018-03-20T14:04:49.001Z,98153.41
2018-03-20T14:07:17.266Z,98142.00
2018-03-20T14:09:45.512Z,98150.91
2018-03-20T14:12:14.532Z,98151.80
2018-03-20T14:14:42.837Z,98147.94
2018-03-20T14:17:11.073Z,98151.97
2018-03-20T14:19:40.095Z,98134.48
2018-03-20T14:22:08.349Z,98158.28
2018-03-20T14:24:36.594Z,98159.09
2018-03-20T14:27:06.389Z,98165.79
2018-03-20T14:29:34.636Z,98170.81
2018-03-20T14:32:02.883Z,98168.05
2018-03-20T14:34:31.159Z,98175.87
2018-03-20T14:36:59.421Z,98165.63
2018-03-20T14:39:28.453Z,98170.36
2018-03-20T14:41:56.722Z,98169.87
2018-03-20T14:44:24.964Z,98190.36
2018-03-20T14:46:54.013Z,98180.11
2018-03-20T14:49:22.268Z,98195.86
2018-03-20T14:51:50.526Z,98190.27
2018-03-20T14:54:19.556Z,98204.59
2018-03-20T14:56:47.803Z,98218.05
2018-03-20T14:59:16.058Z,98214.88
2018-03-20T15:01:45.085Z,98220.22
2018-03-20T15:04:13.340Z,98220.33
2018-03-20T15:06:41.615Z,98220.20
2018-03-20T15:09:10.643Z,98207.83
2018-03-20T15:11:38.892Z,98220.59
2018-03-20T15:14:07.182Z,98228.48
2018-03-20T15:16:35.433Z,98241.51
2018-03-20T15:19:04.464Z,98241.29
2018-03-20T15:21:32.724Z,98247.28
2018-03-20T15:24:00.978Z,98242.23
2018-03-20T15:26:30.018Z,98251.44
2018-03-20T15:28:58.272Z,98253.11
2018-03-20T15:31:26.529Z,98256.22
2018-03-20T15:33:54.801Z,98262.41
2018-03-20T15:36:23.060Z,98268.20
2018-03-20T15:38:52.072Z,98272.04
2018-03-20T15:41:20.347Z,98277.93
2018-03-20T15:43:48.602Z,98281.02
2018-03-20T15:46:16.858Z,98282.58
2018-03-20T15:48:45.131Z,98285.13
2018-03-20T15:51:13.379Z,98286.13
2018-03-20T15:53:41.636Z,98293.97
2018-03-20T15:56:09.931Z,98292.02
2018-03-20T15:58:38.205Z,98300.72
2018-03-20T16:01:06.448Z,98299.70
2018-03-20T16:03:35.539Z,98308.37
2018-03-20T16:06:04.580Z,98305.30
2018-03-20T16:08:32.887Z,98320.53
2018-03-20T16:11:01.138Z,98320.88
2018-03-20T16:13:29.461Z,98321.82
2018-03-20T16:15:58.506Z,98335.84
2018-03-20T16:18:26.966Z,98332.48
2018-03-20T16:20:55.348Z,98340.44
2018-03-20T16:23:23.637Z,98341.84
2018-03-20T16:25:51.949Z,98345.75
2018-03-20T16:28:20.320Z,98350.20
2018-03-20T16:30:48.633Z,98356.59
2018-03-20T16:33:16.920Z,98356.72
2018-03-20T16:35:45.327Z,98358.36
2018-03-20T16:38:13.723Z,98363.03
2018-03-20T16:40:42.843Z,98366.22
2018-03-20T16:43:11.261Z,98377.37
2018-03-20T16:45:40.494Z,98385.57
2018-03-20T16:48:09.691Z,98395.34
2018-03-20T16:50:38.550Z,98389.45
2018-03-20T16:53:07.425Z,98402.80
2018-03-20T16:55:36.228Z,98400.23
2018-03-20T16:58:05.016Z,98403.57
2018-03-20T17:00:34.891Z,98409.78
2018-03-20T17:03:03.626Z,98411.00
2018-03-20T17:05:33.055Z,98414.36
2018-03-20T17:08:03.181Z,98419.09
2018-03-20T17:10:33.324Z,98420.27
2018-03-20T17:13:03.066Z,98418.90
2018-03-20T17:15:33.410Z,98421.70
2018-03-20T17:18:04.331Z,98425.41
2018-03-20T17:20:34.773Z,98425.31
2018-03-20T17:23:04.608Z,98432.47
2018-03-20T17:25:34.620Z,98435.08
2018-03-20T17:28:04.668Z,98436.91
2018-03-20T17:30:34.427Z,98447.23
2018-03-20T17:33:05.114Z,98448.09
2018-03-20T17:35:37.842Z,98450.93
2018-03-20T17:38:07.721Z,98460.81
2018-03-20T17:40:37.513Z,98461.85
2018-03-20T17:43:07.364Z,98465.88
2018-03-20T17:45:38.096Z,98469.75
2018-03-20T17:48:08.831Z,98475.78
2018-03-20T17:50:39.474Z,98480.03
2018-03-20T17:53:09.374Z,98491.25
2018-03-20T17:55:40.014Z,98487.41
2018-03-20T17:58:10.662Z,98501.02
2018-03-20T18:00:40.763Z,98502.08
2018-03-20T18:03:11.571Z,98504.44
2018-03-20T18:05:42.269Z,98512.30
2018-03-20T18:08:12.439Z,98522.23
2018-03-20T18:10:43.100Z,98528.85
2018-03-20T18:13:13.186Z,98526.23
2018-03-20T18:15:43.031Z,98529.53
2018-03-20T18:18:12.413Z,98531.45
2018-03-20T18:20:42.610Z,98533.73
2018-03-20T18:23:12.571Z,98547.24
2018-03-20T18:25:42.626Z,98546.20
2018-03-20T18:28:12.895Z,98548.75
2018-03-20T18:30:43.689Z,98554.83
2018-03-20T18:33:13.724Z,98558.99
2018-03-20T18:35:43.746Z,98562.34
2018-03-20T18:38:14.514Z,98562.17
2018-03-20T18:40:44.388Z,98574.70
2018-03-20T18:43:15.290Z,98572.34
2018-03-20T18:45:44.603Z,98578.63
2018-03-20T18:48:14.964Z,98579.61
2018-03-20T18:50:44.258Z,98584.23
2018-03-20T18:53:14.625Z,98591.77
2018-03-20T18:55:43.878Z,98596.73
2018-03-20T18:58:13.296Z,98599.97
2018-03-20T19:00:43.268Z,98597.91
2018-03-20T19:03:12.527Z,98602.98
2018-03-20T19:05:41.931Z,98606.72
2018-03-20T19:08:11.398Z,98611.45
2018-03-20T19:10:41.588Z,98610.02
2018-03-20T19:13:10.897Z,98618.34
2018-03-20T19:15:40.162Z,98622.30
2018-03-20T19:18:09.609Z,98628.03
2018-03-20T19:20:39.850Z,98628.44
2018-03-20T19:23:09.225Z,98633.62
2018-03-20T19:25:39.232Z,98639.49
2018-03-20T19:28:08.727Z,98643.06
2018-03-20T19:30:38.664Z,98647.30
2018-03-20T19:33:08.884Z,98653.01
2018-03-20T19:35:38.670Z,98656.80
2018-03-20T19:38:08.743Z,98659.38
2018-03-20T19:40:38.527Z,98663.27
2018-03-20T19:43:08.700Z,98667.02
2018-03-20T19:45:38.621Z,98673.61
2018-03-20T19:48:08.661Z,98682.45
2018-03-20T19:50:38.517Z,98679.05
2018-03-20T19:53:11.018Z,98688.10
2018-03-20T19:55:41.665Z,98690.16
2018-03-20T19:58:12.481Z,98690.84
2018-03-20T20:00:42.335Z,98697.48
2018-03-20T20:03:11.755Z,98696.55
2018-03-20T20:05:41.231Z,98701.31
2018-03-20T20:08:11.535Z,98701.00
2018-03-20T20:10:40.942Z,98708.71
2018-03-20T20:13:10.528Z,98717.45
2018-03-20T20:15:40.690Z,98722.78
2018-03-20T20:18:10.998Z,98725.28
2018-03-20T20:20:40.473Z,98731.06
2018-03-20T20:23:10.699Z,98733.28
2018-03-20T20:25:40.016Z,98735.16
2018-03-20T20:28:09.530Z,98735.17
2018-03-20T20:30:38.830Z,98738.89
2018-03-20T20:33:08.244Z,98742.89
2018-03-20T20:35:37.566Z,98749.00
2018-03-20T20:38:06.993Z,98739.45
2018-03-20T20:40:36.445Z,98745.92
2018-03-20T20:43:07.140Z,98749.70
2018-03-20T20:45:37.879Z,98751.80
2018-03-20T20:48:08.088Z,98758.99
2018-03-20T20:50:38.712Z,98757.41
2018-03-20T20:53:09.503Z,98759.76
2018-03-20T20:55:39.696Z,98759.71
2018-03-20T20:58:09.583Z,98760.30
2018-03-20T21:00:39.634Z,98761.10
2018-03-20T21:03:10.392Z,98763.89
2018-03-20T21:05:40.323Z,98763.98
2018-03-20T21:08:10.379Z,98770.91
2018-03-20T21:10:41.156Z,98775.20
2018-03-20T21:13:11.278Z,98772.63
2018-03-20T21:15:41.200Z,98786.73
2018-03-20T21:18:11.603Z,98785.57
2018-03-20T21:20:41.488Z,98784.94
2018-03-20T21:23:11.474Z,98788.61
2018-03-20T21:25:41.486Z,98788.23
2018-03-20T21:28:11.531Z,98787.34
2018-03-20T21:30:42.308Z,98795.13
2018-03-20T21:33:12.204Z,98793.41
2018-03-20T21:35:41.943Z,98799.80
2018-03-20T21:38:12.425Z,98795.09
2018-03-20T21:40:43.089Z,98798.69
2018-03-20T21:43:13.200Z,98796.41
2018-03-20T21:45:43.313Z,98803.48
2018-03-20T21:48:14.662Z,98809.62
2018-03-20T21:50:44.470Z,98802.36
2018-03-20T21:53:15.070Z,98808.12
2018-03-20T21:55:44.666Z,98805.14
2018-03-20T21:58:14.469Z,98809.39
2018-03-20T22:00:44.014Z,98805.14
2018-03-20T22:03:14.745Z,98813.13
2018-03-20T22:05:44.659Z,98819.05
2018-03-20T22:08:14.472Z,98822.09
2018-03-20T22:10:45.443Z,98827.42
2018-03-20T22:13:15.512Z,98829.43
2018-03-20T22:15:45.301Z,98836.69
2018-03-20T22:18:15.223Z,98834.97
2018-03-20T22:20:45.295Z,98840.59
2018-03-20T22:23:15.204Z,98833.97
2018-03-20T22:25:44.568Z,98844.80
2018-03-20T22:28:13.498Z,98846.66
2018-03-20T22:30:41.841Z,98845.42
2018-03-20T22:33:10.880Z,98842.53
2018-03-20T22:35:39.147Z,98849.26
2018-03-20T22:38:07.423Z,98851.38
2018-03-20T22:40:35.760Z,98850.90
2018-03-20T22:43:04.785Z,98852.33
2018-03-20T22:45:33.052Z,98855.28
2018-03-20T22:48:02.071Z,98856.39
2018-03-20T22:50:30.333Z,98855.73
2018-03-20T22:52:58.596Z,98868.30
2018-03-20T22:55:27.616Z,98866.17
2018-03-20T22:57:55.882Z,98876.33
2018-03-20T23:00:29.100Z,98878.56
2018-03-20T23:02:57.386Z,98877.30
2018-03-20T23:05:25.636Z,98879.19
2018-03-20T23:07:53.888Z,98881.84
2018-03-20T23:10:22.160Z,98879.82
2018-03-20T23:12:50.412Z,98881.05
2018-03-20T23:15:18.692Z,98879.85
2018-03-20T23:17:47.727Z,98887.14
2018-03-20T23:20:15.981Z,98879.14
2018-03-20T23:22:44.267Z,98884.91
2018-03-20T23:25:12.537Z,98887.64
2018-03-20T23:27:40.797Z,98887.90
2018-03-20T23:30:09.816Z,98895.09
2018-03-20T23:32:38.203Z,98892.34
2018-03-20T23:35:06.464Z,98897.47
2018-03-20T23:37:34.719Z,98900.61
2018-03-20T23:40:03.765Z,98904.44
2018-03-20T23:42:32.020Z,98907.50
2018-03-20T23:45:00.298Z,98911.11
2018-03-20T23:47:28.573Z,98911.84
2018-03-20T23:49:56.828Z,98921.70
2018-03-20T23:52:25.162Z,98922.41
2018-03-20T23:54:53.460Z,98927.85
2018-03-20T23:57:21.741Z,98934.77
2018-03-20T23:59:50.765Z,98931.98
